createdAt,value
2018-08-03T00:01:22.200Z,95916.00
2018-08-03T00:03:52.054Z,95911.00
2018-08-03T00:06:21.669Z,95910.00
2018-08-03T00:08:52.097Z,95900.00
2018-08-03T00:11:23.002Z,95905.00
2018-08-03T00:13:53.273Z,95900.00
2018-08-03T00:16:23.133Z,95895.00
2018-08-03T00:19:00.900Z,95907.00
2018-08-03T00:21:30.650Z,95898.00
2018-08-03T00:24:01.687Z,95894.00
2018-08-03T00:26:32.804Z,95898.00
2018-08-03T00:29:03.092Z,95898.00
2018-08-03T00:31:32.570Z,95901.00
2018-08-03T00:34:02.798Z,95897.00
2018-08-03T00:36:32.726Z,95892.00
2018-08-03T00:39:02.988Z,95890.00
2018-08-03T00:41:37.175Z,95894.00
2018-08-03T00:44:07.338Z,95881.00
2018-08-03T00:46:36.884Z,95884.00
2018-08-03T00:49:06.500Z,95885.00
2018-08-03T00:51:36.959Z,95879.00
2018-08-03T00:54:06.860Z,95875.00
2018-08-03T00:56:36.688Z,95879.00
2018-08-03T00:59:06.230Z,95865.00
2018-08-03T01:01:35.781Z,95871.00
2018-08-03T01:04:05.374Z,95874.00
2018-08-03T01:06:34.855Z,95878.00
2018-08-03T01:09:08.463Z,95881.00
2018-08-03T01:11:38.685Z,95879.00
2018-08-03T01:14:09.949Z,95870.00
2018-08-03T01:16:40.977Z,95875.00
2018-08-03T01:19:12.573Z,95870.00
2018-08-03T01:21:43.791Z,95867.00
2018-08-03T01:24:13.379Z,95873.00
2018-08-03T01:26:43.246Z,95879.00
2018-08-03T01:29:15.020Z,95889.00
2018-08-03T01:31:44.684Z,95882.00
2018-08-03T01:34:14.251Z,95881.00
2018-08-03T01:36:43.438Z,95875.00
2018-08-03T01:39:13.654Z,95872.00
2018-08-03T01:41:43.152Z,95868.00
2018-08-03T01:44:12.676Z,95866.00
2018-08-03T01:46:42.258Z,95876.00
2018-08-03T01:49:12.006Z,95864.00
2018-08-03T01:51:41.894Z,95869.00
2018-08-03T01:54:11.604Z,95865.00
2018-08-03T01:56:42.422Z,95859.00
2018-08-03T01:59:12.909Z,95866.00
2018-08-03T02:01:42.453Z,95848.00
2018-08-03T02:04:12.666Z,95856.00
2018-08-03T02:06:42.546Z,95863.00
2018-08-03T02:09:12.874Z,95859.00
2018-08-03T02:11:42.465Z,95863.00
2018-08-03T02:14:11.774Z,95871.00
2018-08-03T02:16:41.313Z,95877.00
2018-08-03T02:19:11.685Z,95876.00
2018-08-03T02:21:41.218Z,95871.00
2018-08-03T02:24:11.068Z,95869.00
2018-08-03T02:26:40.697Z,95869.00
2018-08-03T02:29:10.265Z,95859.00
2018-08-03T02:31:39.895Z,95869.00
2018-08-03T02:34:09.685Z,95873.00
2018-08-03T02:36:39.852Z,95868.00
2018-08-03T02:39:10.855Z,95865.00
2018-08-03T02:41:41.408Z,95875.00
2018-08-03T02:44:15.965Z,95877.00
2018-08-03T02:46:45.205Z,95861.00
2018-08-03T02:49:14.899Z,95874.00
2018-08-03T02:51:48.504Z,95875.00
2018-08-03T02:54:18.189Z,95873.00
2018-08-03T02:56:47.329Z,95873.00
2018-08-03T02:59:21.163Z,95876.00
2018-08-03T03:01:50.639Z,95874.00
2018-08-03T03:04:20.556Z,95871.00
2018-08-03T03:06:50.412Z,95876.00
2018-08-03T03:09:24.628Z,95876.00
2018-08-03T03:11:54.142Z,95866.00
2018-08-03T03:14:24.586Z,95869.00
2018-08-03T03:29:59.144Z,95863.00
2018-08-03T03:32:28.806Z,95860.00
2018-08-03T03:34:59.266Z,95864.00
2018-08-03T03:37:29.150Z,95860.00
2018-08-03T03:39:58.800Z,95853.00
2018-08-03T03:42:32.408Z,95844.00
2018-08-03T03:45:01.893Z,95849.00
2018-08-03T03:47:31.395Z,95843.00
2018-08-03T03:50:00.900Z,95846.00
2018-08-03T03:52:30.645Z,95841.00
2018-08-03T03:55:00.245Z,95840.00
2018-08-03T03:57:29.759Z,95841.00
2018-08-03T03:59:59.343Z,95836.00
2018-08-03T04:02:28.875Z,95837.00
2018-08-03T04:04:58.549Z,95844.00
2018-08-03T04:07:29.431Z,95846.00
2018-08-03T04:09:59.681Z,95840.00
2018-08-03T04:12:29.069Z,95839.00
2018-08-03T04:14:58.485Z,95843.00
2018-08-03T04:17:27.599Z,95850.00
2018-08-03T04:19:58.215Z,95856.00
2018-08-03T04:22:28.081Z,95861.00
2018-08-03T04:24:57.521Z,95857.00
2018-08-03T04:27:27.173Z,95859.00
2018-08-03T04:29:56.656Z,95866.00
2018-08-03T04:32:26.131Z,95871.00
2018-08-03T04:34:55.690Z,95874.00
2018-08-03T04:37:25.120Z,95886.00
2018-08-03T04:39:54.568Z,95894.00
2018-08-03T04:42:24.067Z,95899.00
2018-08-03T04:44:53.616Z,95897.00
2018-08-03T04:47:23.238Z,95892.00
2018-08-03T04:49:52.659Z,95892.00
2018-08-03T04:52:22.230Z,95886.00
2018-08-03T04:54:53.808Z,95896.00
2018-08-03T04:57:24.824Z,95898.00
2018-08-03T04:59:54.238Z,95896.00
2018-08-03T05:02:24.352Z,95891.00
2018-08-03T05:04:53.883Z,95895.00
2018-08-03T05:07:23.388Z,95893.00
2018-08-03T05:09:53.754Z,95900.00
2018-08-03T05:12:23.777Z,95896.00
2018-08-03T05:14:53.678Z,95884.00
2018-08-03T05:17:22.836Z,95886.00
2018-08-03T05:19:53.203Z,95890.00
2018-08-03T05:22:22.660Z,95898.00
2018-08-03T05:24:52.242Z,95889.00
2018-08-03T05:27:21.737Z,95886.00
2018-08-03T05:29:51.870Z,95889.00
2018-08-03T05:32:23.415Z,95893.00
2018-08-03T05:34:52.843Z,95898.00
2018-08-03T05:37:22.769Z,95890.00
2018-08-03T05:39:52.307Z,95896.00
2018-08-03T05:42:21.790Z,95898.00
2018-08-03T05:44:51.523Z,95898.00
2018-08-03T05:47:25.228Z,95899.00
2018-08-03T05:49:54.874Z,95901.00
2018-08-03T05:52:25.636Z,95892.00
2018-08-03T05:54:55.793Z,95899.00
2018-08-03T05:57:26.407Z,95896.00
2018-08-03T05:59:56.374Z,95895.00
2018-08-03T06:02:26.922Z,95894.00
2018-08-03T06:04:56.434Z,95897.00
2018-08-03T06:07:27.708Z,95890.00
2018-08-03T06:09:58.104Z,95895.00
2018-08-03T06:12:27.668Z,95902.00
2018-08-03T06:15:00.079Z,95901.00
2018-08-03T06:17:34.603Z,95890.00
2018-08-03T06:20:05.021Z,95896.00
2018-08-03T06:22:35.104Z,95895.00
2018-08-03T06:25:05.395Z,95889.00
2018-08-03T06:27:35.169Z,95896.00
2018-08-03T06:30:05.759Z,95899.00
2018-08-03T06:32:35.691Z,95911.00
2018-08-03T06:35:07.370Z,95906.00
2018-08-03T06:37:37.716Z,95904.00
2018-08-03T06:40:09.084Z,95904.00
2018-08-03T06:42:39.704Z,95906.00
2018-08-03T06:45:11.072Z,95902.00
2018-08-03T06:47:40.618Z,95897.00
2018-08-03T06:50:27.037Z,95896.00
2018-08-03T06:52:56.491Z,95900.00
2018-08-03T06:55:26.058Z,95896.00
2018-08-03T06:57:55.631Z,95891.00
2018-08-03T07:00:25.172Z,95899.00
2018-08-03T07:02:55.053Z,95896.00
2018-08-03T07:05:24.762Z,95901.00
2018-08-03T07:07:54.859Z,95889.00
2018-08-03T07:10:26.076Z,95899.00
2018-08-03T07:12:56.808Z,95892.00
2018-08-03T07:15:27.190Z,95891.00
2018-08-03T07:17:57.719Z,95896.00
2018-08-03T07:21:02.175Z,95893.00
2018-08-03T07:23:32.588Z,95892.00
2018-08-03T07:26:02.317Z,95892.00
2018-08-03T07:28:34.063Z,95889.00
2018-08-03T07:31:27.790Z,95886.00
2018-08-03T07:33:58.519Z,95888.00
2018-08-03T07:36:28.100Z,95892.00
2018-08-03T07:38:58.984Z,95891.00
2018-08-03T07:41:28.559Z,95889.00
2018-08-03T07:44:00.947Z,95889.00
2018-08-03T07:46:30.871Z,95888.00
2018-08-03T07:49:01.946Z,95894.00
2018-08-03T07:51:36.853Z,95886.00
2018-08-03T07:54:07.515Z,95892.00
2018-08-03T07:56:37.066Z,95888.00
2018-08-03T07:59:09.587Z,95887.00
2018-08-03T08:01:52.723Z,95884.00
2018-08-03T08:04:22.531Z,95885.00
2018-08-03T08:06:56.993Z,95887.00
2018-08-03T08:09:26.530Z,95894.00
2018-08-03T08:11:55.687Z,95892.00
2018-08-03T08:14:25.253Z,95884.00
2018-08-03T08:16:56.773Z,95878.00
2018-08-03T08:19:26.994Z,95885.00
2018-08-03T08:21:56.501Z,95889.00
2018-08-03T08:24:26.457Z,95878.00
2018-08-03T08:26:55.862Z,95882.00
2018-08-03T08:29:25.294Z,95874.00
2018-08-03T08:31:54.799Z,95882.00
2018-08-03T08:34:24.531Z,95873.00
2018-08-03T08:36:54.111Z,95878.00
2018-08-03T08:39:23.301Z,95882.00
2018-08-03T08:41:53.167Z,95882.00
2018-08-03T08:44:23.505Z,95881.00
2018-08-03T08:46:55.535Z,95887.00
2018-08-03T08:49:25.142Z,95884.00
2018-08-03T08:51:55.124Z,95886.00
2018-08-03T08:54:25.248Z,95884.00
2018-08-03T08:56:55.562Z,95881.00
2018-08-03T08:59:25.699Z,95882.00
2018-08-03T09:01:57.000Z,95879.00
2018-08-03T09:04:26.986Z,95877.00
2018-08-03T09:06:57.060Z,95880.00
2018-08-03T09:09:26.665Z,95885.00
2018-08-03T09:11:56.197Z,95883.00
2018-08-03T09:14:25.965Z,95880.00
2018-08-03T09:16:55.348Z,95875.00
2018-08-03T09:19:24.769Z,95879.00
2018-08-03T09:21:54.094Z,95875.00
2018-08-03T09:24:23.837Z,95876.00
2018-08-03T09:26:53.441Z,95879.00
2018-08-03T09:29:22.862Z,95880.00
2018-08-03T09:31:52.495Z,95882.00
2018-08-03T09:34:21.958Z,95880.00
2018-08-03T09:36:52.292Z,95876.00
2018-08-03T09:39:21.788Z,95873.00
2018-08-03T09:41:51.244Z,95865.00
2018-08-03T09:44:20.593Z,95871.00
2018-08-03T09:46:50.163Z,95858.00
2018-08-03T09:49:19.778Z,95866.00
2018-08-03T09:51:50.179Z,95860.00
2018-08-03T09:54:19.725Z,95852.00
2018-08-03T09:56:49.157Z,95853.00
2018-08-03T09:59:19.155Z,95854.00
2018-08-03T10:01:49.224Z,95848.00
2018-08-03T10:04:18.913Z,95852.00
2018-08-03T10:06:48.382Z,95845.00
2018-08-03T10:09:18.245Z,95854.00
2018-08-03T10:11:47.445Z,95841.00
2018-08-03T10:14:16.914Z,95848.00
2018-08-03T10:16:46.500Z,95843.00
2018-08-03T10:19:15.920Z,95841.00
2018-08-03T10:21:46.011Z,95841.00
2018-08-03T10:24:16.215Z,95829.00
2018-08-03T10:26:45.742Z,95831.00
2018-08-03T10:29:15.209Z,95830.00
2018-08-03T10:31:44.792Z,95829.00
2018-08-03T10:34:14.511Z,95828.00
2018-08-03T10:36:44.152Z,95825.00
2018-08-03T10:39:13.319Z,95825.00
2018-08-03T10:41:43.097Z,95831.00
2018-08-03T10:44:12.531Z,95825.00
2018-08-03T10:46:42.258Z,95829.00
2018-08-03T10:49:12.077Z,95821.00
2018-08-03T10:51:41.531Z,95822.00
2018-08-03T10:54:11.445Z,95818.00
2018-08-03T10:56:41.468Z,95818.00
2018-08-03T10:59:11.678Z,95817.00
2018-08-03T11:01:41.323Z,95817.00
2018-08-03T11:04:10.824Z,95810.00
2018-08-03T11:06:41.481Z,95811.00
2018-08-03T11:09:11.187Z,95804.00
2018-08-03T11:11:40.686Z,95801.00
2018-08-03T11:14:10.292Z,95805.00
2018-08-03T11:16:40.028Z,95803.00
2018-08-03T11:19:09.320Z,95805.00
2018-08-03T11:21:38.536Z,95803.00
2018-08-03T11:24:08.149Z,95799.00
2018-08-03T11:26:38.374Z,95803.00
2018-08-03T11:29:08.505Z,95798.00
2018-08-03T11:31:38.684Z,95794.00
2018-08-03T11:34:08.856Z,95797.00
2018-08-03T11:36:38.559Z,95798.00
2018-08-03T11:39:11.518Z,95798.00
2018-08-03T11:41:41.213Z,95796.00
2018-08-03T11:44:11.955Z,95785.00
2018-08-03T11:46:41.332Z,95793.00
2018-08-03T11:49:11.881Z,95789.00
2018-08-03T11:51:41.366Z,95784.00
2018-08-03T11:54:11.945Z,95784.00
2018-08-03T11:56:41.435Z,95799.00
2018-08-03T11:59:11.945Z,95791.00
2018-08-03T12:01:41.403Z,95787.00
2018-08-03T12:04:11.497Z,95785.00
2018-08-03T12:06:41.717Z,95782.00
2018-08-03T12:09:11.241Z,95782.00
2018-08-03T12:11:40.693Z,95775.00
2018-08-03T12:14:11.123Z,95771.00
2018-08-03T12:16:40.695Z,95777.00
2018-08-03T12:19:10.228Z,95765.00
2018-08-03T12:21:40.538Z,95767.00
2018-08-03T12:24:10.183Z,95771.00
2018-08-03T12:26:40.176Z,95771.00
2018-08-03T12:29:10.786Z,95781.00
2018-08-03T12:31:40.301Z,95766.00
2018-08-03T12:34:09.809Z,95766.00
2018-08-03T12:36:39.450Z,95760.00
2018-08-03T12:39:16.588Z,95770.00
2018-08-03T12:41:46.836Z,95773.00
2018-08-03T12:44:16.336Z,95763.00
2018-08-03T12:46:56.134Z,95767.00
2018-08-03T12:49:33.214Z,95763.00
2018-08-03T12:52:04.783Z,95762.00
2018-08-03T12:54:39.841Z,95760.00
2018-08-03T12:57:09.241Z,95766.00
2018-08-03T12:59:39.328Z,95769.00
2018-08-03T13:02:08.899Z,95766.00
2018-08-03T13:04:39.250Z,95760.00
2018-08-03T13:07:08.676Z,95757.00
2018-08-03T13:09:38.797Z,95747.00
2018-08-03T13:12:09.371Z,95745.00
2018-08-03T13:14:39.056Z,95747.00
2018-08-03T13:17:09.248Z,95758.00
2018-08-03T13:19:39.743Z,95756.00
2018-08-03T13:22:18.683Z,95749.00
2018-08-03T13:24:47.801Z,95752.00
2018-08-03T13:27:17.700Z,95742.00
2018-08-03T13:29:47.255Z,95741.00
2018-08-03T13:32:17.925Z,95742.00
2018-08-03T13:34:47.473Z,95743.00
2018-08-03T13:37:18.408Z,95746.00
2018-08-03T13:39:47.890Z,95731.00
2018-08-03T13:42:17.151Z,95728.00
2018-08-03T13:44:47.564Z,95733.00
2018-08-03T13:47:17.012Z,95730.00
2018-08-03T13:49:47.134Z,95725.00
2018-08-03T13:52:16.386Z,95721.00
2018-08-03T13:54:46.942Z,95717.00
2018-08-03T13:57:16.664Z,95707.00
2018-08-03T13:59:45.871Z,95707.00
2018-08-03T14:02:23.382Z,95709.00
2018-08-03T14:04:54.220Z,95707.00
2018-08-03T14:07:24.544Z,95707.00
2018-08-03T14:09:54.751Z,95703.00
2018-08-03T14:12:24.596Z,95706.00
2018-08-03T14:14:53.968Z,95700.00
2018-08-03T14:17:23.452Z,95692.00
2018-08-03T14:19:52.959Z,95691.00
2018-08-03T14:22:23.352Z,95691.00
2018-08-03T14:24:52.828Z,95700.00
2018-08-03T14:27:23.065Z,95694.00
2018-08-03T14:29:52.631Z,95684.00
2018-08-03T14:32:21.851Z,95680.00
2018-08-03T14:35:00.010Z,95685.00
2018-08-03T14:37:32.021Z,95681.00
2018-08-03T14:40:01.536Z,95683.00
2018-08-03T14:42:32.072Z,95682.00
2018-08-03T14:45:02.283Z,95682.00
2018-08-03T14:47:43.895Z,95684.00
2018-08-03T14:50:15.104Z,95676.00
2018-08-03T14:52:44.947Z,95674.00
2018-08-03T14:55:14.571Z,95674.00
2018-08-03T14:57:44.115Z,95665.00
2018-08-03T15:00:13.469Z,95672.00
2018-08-03T15:02:43.241Z,95669.00
2018-08-03T15:05:13.489Z,95659.00
2018-08-03T15:07:43.007Z,95673.00
2018-08-03T15:10:13.119Z,95673.00
2018-08-03T15:12:43.181Z,95676.00
2018-08-03T15:15:13.908Z,95671.00
2018-08-03T15:17:43.488Z,95673.00
2018-08-03T15:20:12.982Z,95665.00
2018-08-03T15:22:42.670Z,95672.00
2018-08-03T15:25:12.189Z,95683.00
2018-08-03T15:27:41.682Z,95678.00
2018-08-03T15:30:11.925Z,95676.00
2018-08-03T15:32:42.139Z,95680.00
2018-08-03T15:35:12.832Z,95684.00
2018-08-03T15:37:43.104Z,95679.00
2018-08-03T15:40:12.582Z,95677.00
2018-08-03T15:42:43.989Z,95669.00
2018-08-03T15:45:13.570Z,95669.00
2018-08-03T15:47:44.021Z,95664.00
2018-08-03T15:50:14.191Z,95664.00
2018-08-03T15:52:44.377Z,95676.00
2018-08-03T15:55:14.331Z,95655.00
2018-08-03T15:57:45.344Z,95653.00
2018-08-03T16:00:14.787Z,95652.00
2018-08-03T16:02:44.493Z,95648.00
2018-08-03T16:05:14.015Z,95642.00
2018-08-03T16:07:43.504Z,95639.00
2018-08-03T16:10:13.039Z,95641.00
2018-08-03T16:12:42.530Z,95637.00
2018-08-03T16:15:13.238Z,95642.00
2018-08-03T16:17:43.231Z,95638.00
2018-08-03T16:20:13.720Z,95638.00
2018-08-03T16:22:43.693Z,95643.00
2018-08-03T16:25:13.137Z,95640.00
2018-08-03T16:27:42.708Z,95636.00
2018-08-03T16:30:11.994Z,95636.00
2018-08-03T16:32:42.138Z,95634.00
2018-08-03T16:35:12.404Z,95636.00
